This is the latest recevied weather packets stored in our database for station/object AD8PA-13. If no packets are shown the sender has not sent any weather packets the latest 10 day(s).
| Time | Temp. | Humidity | Pressure | Rain* | Wind** | Luminosity | Snow |
|---|---|---|---|---|---|---|---|
| 1777570015 | 11.11° C | 51% | 1014.9 hPa | 0 mm | - | - | - |
| 1777569110 | 11.11° C | 52% | 1015 hPa | 0 mm | - | - | - |
| 1777568207 | 11.11° C | 47% | 1015.2 hPa | 0 mm | - | - | - |
| 1777567303 | 10.56° C | 52% | 1015.5 hPa | 0 mm | - | - | - |
| 1777566402 | 11.11° C | 59% | 1015.3 hPa | 0 mm | - | - | - |
| 1777565503 | 10° C | 56% | 1015.4 hPa | 0 mm | - | - | - |
| 1777564602 | 10.56° C | 54% | 1015.4 hPa | 0 mm | - | - | - |
| 1777563702 | 10° C | 58% | 1015.4 hPa | 0 mm | - | - | - |
| 1777562800 | 10° C | 58% | 1015.2 hPa | 0 mm | - | - | - |
| 1777561900 | 10° C | 56% | 1015.4 hPa | 0 mm | - | - | - |
| 1777560998 | 9.44° C | 57% | 1015.1 hPa | 0 mm | - | - | - |
| 1777560095 | 10° C | 56% | 1015.3 hPa | 0 mm | - | - | - |
| 1777559191 | 9.44° C | 60% | 1015.1 hPa | 0 mm | - | - | - |
| 1777553335 | 6.67° C | 82% | 1014.7 hPa | 0 mm | - | - | - |
| 1777552435 | 6.67° C | 82% | 1014.7 hPa | 0 mm | - | - | - |
| 1777551532 | 6.11° C | 84% | 1014.8 hPa | 0 mm | - | - | - |
| 1777550628 | 5.56° C | 88% | 1014.8 hPa | 0 mm | - | - | - |
| 1777549723 | 5° C | 91% | 1014.8 hPa | 0 mm | - | - | - |
| 1777548823 | 5° C | 94% | 1014.8 hPa | 0 mm | - | - | - |
| 1777547919 | 4.44° C | 94% | 1014.6 hPa | 0 mm | - | - | - |
| 1777547015 | 4.44° C | 95% | 1014.5 hPa | 0 mm | - | - | - |
| 1777546112 | 4.44° C | 95% | 1014.7 hPa | 0 mm | - | - | - |
| 1777545207 | 4.44° C | 95% | 1014.3 hPa | 0 mm | - | - | - |
| 1777544304 | 4.44° C | 96% | 1014.2 hPa | 0 mm | - | - | - |
| 1777543400 | 4.44° C | 96% | 1014.3 hPa | 0 mm | - | - | - |
* Rain latest hour (hover to see other rain measurements)
** Current wind speed in m/s (hover to see current wind gust speed)